Time;durP1;ratioP1;P1;durP2;ratioP2;P2;SDS_P1;SDS_P2;PMS_P1;PMS_P2;Temp;Humidity;BMP_temperature;BMP_pressure;BME280_temperature;BME280_humidity;BME280_pressure;Samples;Min_cycle;Max_cycle;Signal;HPM_P1;HPM_P2
2024/02/04 00:00:14;;;;;;;5.65;5.13;;;;;;;7.46;72.91;101628.78;3142601;22;20072;-80
2024/02/04 00:01:28;;;;;;;7.75;5.43;;;;;;;7.46;72.92;101628.78;3143335;23;20051;-80
2024/02/04 00:02:42;;;;;;;5.35;4.38;;;;;;;7.45;72.55;101625.31;3143690;23;20031;-81
2024/02/04 00:03:55;;;;;;;8.15;5.25;;;;;;;7.47;72.84;101615.84;3142167;22;20078;-79
2024/02/04 00:05:10;;;;;;;6.63;5.30;;;;;;;7.48;72.89;101608.94;3143190;23;20028;-80
2024/02/04 00:06:23;;;;;;;4.40;4.00;;;;;;;7.47;72.96;101605.47;3147574;23;20354;-79
2024/02/04 00:07:38;;;;;;;5.80;4.53;;;;;;;7.47;72.85;101595.06;3141779;22;20022;-80
2024/02/04 00:08:52;;;;;;;6.38;5.78;;;;;;;7.48;73.05;101585.56;3142972;23;20023;-80
2024/02/04 00:10:07;;;;;;;12.20;6.82;;;;;;;7.48;72.66;101582.94;3142067;23;20073;-79
2024/02/04 00:11:21;;;;;;;5.10;4.55;;;;;;;7.48;72.64;101582.94;3141964;22;20028;-80
2024/02/04 00:12:36;;;;;;;4.93;3.95;;;;;;;7.48;72.66;101580.34;3142613;23;20023;-79
2024/02/04 00:13:49;;;;;;;5.18;4.32;;;;;;;7.47;72.71;101587.28;3142730;23;20031;-79
2024/02/04 00:15:05;;;;;;;5.32;3.65;;;;;;;7.48;72.85;101577.75;3142935;22;20026;-79
2024/02/04 00:16:18;;;;;;;5.50;3.60;;;;;;;7.49;72.64;101576.94;3142144;23;20178;-80
2024/02/04 00:17:34;;;;;;;5.15;4.10;;;;;;;7.50;72.48;101573.47;3142968;23;20046;-79
2024/02/04 00:18:47;;;;;;;4.78;4.13;;;;;;;7.50;72.18;101568.28;3142948;23;20024;-79
2024/02/04 00:20:03;;;;;;;4.15;3.55;;;;;;;7.50;72.58;101568.28;3142137;22;20024;-81
2024/02/04 00:21:16;;;;;;;6.22;4.10;;;;;;;7.50;72.54;101568.28;3142733;23;20028;-79
2024/02/04 00:22:31;;;;;;;4.93;4.03;;;;;;;7.51;72.53;101573.53;3143517;23;20074;-79
2024/02/04 00:23:44;;;;;;;4.32;3.63;;;;;;;7.53;72.71;101583.91;3141750;22;20020;-78
2024/02/04 00:25:04;;;;;;;7.53;4.53;;;;;;;7.53;72.43;101583.91;3142367;22;20431;-79
2024/02/04 00:26:17;;;;;;;4.82;4.03;;;;;;;7.52;72.34;101569.19;3143564;23;20043;-79
2024/02/04 00:27:33;;;;;;;5.53;4.68;;;;;;;7.53;72.28;101563.13;3142683;22;20020;-80
2024/02/04 00:28:47;;;;;;;6.10;4.63;;;;;;;7.53;72.50;101564.00;3143288;23;20028;-80
2024/02/04 00:30:01;;;;;;;10.55;4.93;;;;;;;7.55;72.34;101561.44;3143522;23;20348;-77
2024/02/04 00:31:15;;;;;;;4.40;3.67;;;;;;;7.55;72.35;101561.44;3144020;22;20028;-77
2024/02/04 00:32:29;;;;;;;5.60;4.72;;;;;;;7.55;72.36;101549.34;3145462;23;20026;-77
2024/02/04 00:33:43;;;;;;;4.72;4.07;;;;;;;7.56;72.26;101552.78;3144708;23;20027;-77
2024/02/04 00:34:57;;;;;;;5.28;3.85;;;;;;;7.55;72.16;101548.47;3144339;22;20021;-79
2024/02/04 00:36:11;;;;;;;5.90;3.50;;;;;;;7.55;72.09;101569.25;3143403;22;20034;-80
2024/02/04 00:37:25;;;;;;;7.40;4.30;;;;;;;7.55;72.06;101574.44;3143951;23;20076;-81
2024/02/04 00:38:39;;;;;;;7.15;4.20;;;;;;;7.55;72.31;101574.44;3144318;23;20463;-80
2024/02/04 00:39:53;;;;;;;4.95;3.75;;;;;;;7.56;72.19;101582.28;3142444;22;20043;-80
2024/02/04 00:41:06;;;;;;;6.18;5.05;;;;;;;7.57;71.87;101575.34;3143864;23;20066;-80
2024/02/04 00:42:21;;;;;;;4.40;4.00;;;;;;;7.56;71.70;101563.19;3143244;23;20374;-79
2024/02/04 00:43:36;;;;;;;5.00;4.00;;;;;;;7.56;71.65;101558.91;3142757;22;20683;-79
2024/02/04 00:44:50;;;;;;;5.53;3.35;;;;;;;7.57;71.47;101565.81;3143716;22;20412;-80
2024/02/04 00:46:04;;;;;;;3.35;3.05;;;;;;;7.57;71.38;101568.44;3143355;23;20024;-80
2024/02/04 00:47:18;;;;;;;6.72;3.67;;;;;;;7.57;71.43;101565.81;3142324;22;20028;-80
2024/02/04 00:48:31;;;;;;;4.80;4.22;;;;;;;7.58;71.24;101564.97;3143046;23;20024;-79
2024/02/04 00:49:46;;;;;;;4.45;4.05;;;;;;;7.56;71.24;101573.56;3149068;23;20026;-78
2024/02/04 00:50:59;;;;;;;5.80;3.97;;;;;;;7.57;71.48;101575.34;3144340;23;20024;-80
2024/02/04 00:52:14;;;;;;;4.95;3.92;;;;;;;7.59;71.31;101571.03;3142787;22;20024;-79
2024/02/04 00:53:33;;;;;;;4.43;3.78;;;;;;;7.59;71.10;101568.44;3143272;23;20483;-78
2024/02/04 00:54:47;;;;;;;5.00;3.53;;;;;;;7.58;71.14;101564.09;3142678;22;20020;-79
2024/02/04 00:56:01;;;;;;;4.15;3.75;;;;;;;7.58;71.28;101582.28;3142744;22;20024;-80
2024/02/04 00:57:16;;;;;;;5.15;3.83;;;;;;;7.58;71.21;101577.97;3143329;23;20024;-80
2024/02/04 00:58:29;;;;;;;3.78;3.38;;;;;;;7.60;71.25;101575.41;3143011;23;20043;-81
2024/02/04 00:59:45;;;;;;;4.07;3.60;;;;;;;7.60;71.14;101578.00;3141983;22;20024;-80
2024/02/04 01:00:59;;;;;;;3.42;3.13;;;;;;;7.60;70.98;101568.47;3142397;23;20035;-79
2024/02/04 01:02:13;;;;;;;3.45;2.50;;;;;;;7.60;70.86;101573.66;3142760;23;20030;-80
2024/02/04 01:03:28;;;;;;;4.30;3.10;;;;;;;7.61;70.96;101577.13;3142332;22;20016;-80
2024/02/04 01:04:42;;;;;;;3.45;2.92;;;;;;;7.61;71.08;101570.22;3143340;22;20044;-80
2024/02/04 01:05:56;;;;;;;4.07;3.75;;;;;;;7.61;70.91;101572.81;3142756;23;20024;-80
2024/02/04 01:07:10;;;;;;;4.47;3.22;;;;;;;7.62;71.09;101568.50;3142885;22;20026;-80
2024/02/04 01:08:23;;;;;;;4.82;3.22;;;;;;;7.60;70.91;101552.88;3142904;23;20035;-79
2024/02/04 01:09:38;;;;;;;4.13;3.72;;;;;;;7.61;70.91;101556.34;3142732;23;20355;-81
2024/02/04 01:10:51;;;;;;;4.72;3.10;;;;;;;7.61;71.12;101551.16;3142862;23;20043;-81
2024/02/04 01:12:06;;;;;;;4.40;2.90;;;;;;;7.61;70.97;101545.97;3142407;22;20026;-79
2024/02/04 01:13:20;;;;;;;3.83;2.70;;;;;;;7.61;71.01;101551.16;3142952;23;20020;-80
2024/02/04 01:14:34;;;;;;;3.38;2.63;;;;;;;7.61;70.84;101557.22;3143238;22;20107;-80
2024/02/04 01:15:49;;;;;;;4.07;3.20;;;;;;;7.62;70.92;101558.13;3142218;22;20043;-81
2024/02/04 01:17:04;;;;;;;4.55;2.75;;;;;;;7.62;71.11;101573.72;3142522;23;20328;-81
2024/02/04 01:18:17;;;;;;;2.92;2.30;;;;;;;7.62;71.14;101579.78;3142725;23;20024;-79
2024/02/04 01:19:31;;;;;;;3.55;3.00;;;;;;;7.63;70.98;101572.84;3141725;22;20020;-79
2024/02/04 01:20:45;;;;;;;3.83;2.45;;;;;;;7.64;71.04;101579.78;3142693;23;20024;-80
2024/02/04 01:21:59;;;;;;;3.20;2.90;;;;;;;7.64;70.96;101572.88;3142001;23;20020;-79
2024/02/04 01:23:13;;;;;;;4.07;3.10;;;;;;;7.65;70.90;101577.22;3142450;22;20039;-81
2024/02/04 01:24:27;;;;;;;5.90;3.08;;;;;;;7.66;70.61;101572.91;3142192;22;20360;-79
2024/02/04 01:25:41;;;;;;;4.07;2.85;;;;;;;7.65;70.47;101574.63;3142802;23;20043;-80
2024/02/04 01:26:55;;;;;;;3.03;2.67;;;;;;;7.65;70.68;101572.03;3142719;23;20091;-81
2024/02/04 01:28:08;;;;;;;2.80;2.55;;;;;;;7.65;70.68;101578.97;3142128;22;20024;-80
2024/02/04 01:29:23;;;;;;;3.20;2.67;;;;;;;7.66;70.84;101583.28;3142235;23;20024;-81
2024/02/04 01:30:37;;;;;;;4.38;2.95;;;;;;;7.67;70.74;101579.88;3142572;23;20340;-79
2024/02/04 01:31:53;;;;;;;4.65;2.75;;;;;;;7.65;70.65;101569.44;3142763;22;20024;-79
2024/02/04 01:33:06;;;;;;;4.60;3.15;;;;;;;7.65;70.75;101569.44;3143521;23;20024;-80
2024/02/04 01:34:21;;;;;;;3.35;3.05;;;;;;;7.65;70.71;101565.97;3143108;22;20020;-79
2024/02/04 01:35:34;;;;;;;4.65;2.90;;;;;;;7.63;70.61;101567.66;3142804;22;20027;-81
2024/02/04 01:36:48;;;;;;;3.70;3.05;;;;;;;7.63;70.76;101565.06;3143588;23;20027;-80
2024/02/04 01:38:02;;;;;;;3.50;2.83;;;;;;;7.63;70.42;101549.47;3143771;23;20020;-80
2024/02/04 01:39:16;;;;;;;3.40;2.97;;;;;;;7.61;70.41;101556.34;3142773;22;20024;-79
2024/02/04 01:40:30;;;;;;;3.97;3.13;;;;;;;7.62;70.32;101576.31;3142926;23;20359;-81
2024/02/04 01:41:45;;;;;;;3.67;3.22;;;;;;;7.60;70.70;101575.41;3143532;23;20024;-79
2024/02/04 01:42:59;;;;;;;6.63;4.05;;;;;;;7.60;70.76;101583.19;3143239;23;20077;-79
2024/02/04 01:44:13;;;;;;;5.13;3.50;;;;;;;7.61;70.62;101578.00;3142376;22;20020;-80
2024/02/04 01:45:27;;;;;;;3.58;2.80;;;;;;;7.60;70.73;101572.81;3143372;23;20016;-80
2024/02/04 01:46:41;;;;;;;4.50;2.95;;;;;;;7.60;70.34;101580.59;3142944;23;20028;-81
2024/02/04 01:47:56;;;;;;;4.40;3.55;;;;;;;7.59;70.60;101584.91;3142497;22;20028;-79
2024/02/04 01:49:11;;;;;;;3.47;3.00;;;;;;;7.59;70.54;101590.13;3143772;23;20027;-79
2024/02/04 01:50:24;;;;;;;4.03;3.15;;;;;;;7.59;70.77;101584.03;3142684;23;20028;-80
2024/02/04 01:51:39;;;;;;;3.88;3.05;;;;;;;7.58;70.86;101585.75;3142585;22;20094;-79
2024/02/04 01:52:52;;;;;;;3.17;2.63;;;;;;;7.58;70.66;101584.88;3143193;23;20024;-78
2024/02/04 01:54:08;;;;;;;5.10;3.55;;;;;;;7.58;70.54;101590.94;3143279;22;20028;-78
2024/02/04 01:55:22;;;;;;;3.95;3.13;;;;;;;7.57;70.79;101591.81;3143289;22;20670;-78
2024/02/04 01:56:37;;;;;;;6.25;2.85;;;;;;;7.58;70.66;101592.69;3144273;23;20027;-79
2024/02/04 01:57:50;;;;;;;7.28;3.25;;;;;;;7.58;70.56;101592.69;3144285;23;20455;-78
2024/02/04 01:59:05;;;;;;;5.43;2.90;;;;;;;7.57;70.76;101590.94;3143713;23;20027;-79
2024/02/04 02:00:18;;;;;;;3.92;3.47;;;;;;;7.57;70.79;101601.31;3142698;23;20024;-79
2024/02/04 02:01:33;;;;;;;2.95;2.58;;;;;;;7.56;70.58;101592.66;3143470;23;20493;-79
2024/02/04 02:02:48;;;;;;;5.18;2.78;;;;;;;7.55;70.62;101584.81;3143504;23;20031;-79
2024/02/04 02:04:05;;;;;;;4.00;3.60;;;;;;;7.56;70.70;101594.34;3142068;22;20020;-80
2024/02/04 02:05:19;;;;;;;3.38;2.63;;;;;;;7.55;70.69;101595.22;3143098;23;20020;-78
2024/02/04 02:06:35;;;;;;;3.05;2.60;;;;;;;7.55;70.49;101590.03;3143418;23;20030;-79
2024/02/04 02:07:51;;;;;;;2.95;2.45;;;;;;;7.54;70.40;101591.75;3143121;22;20493;-80
2024/02/04 02:09:06;;;;;;;3.25;2.75;;;;;;;7.55;70.69;101587.44;3142555;23;20581;-80
2024/02/04 02:10:20;;;;;;;2.83;2.60;;;;;;;7.54;70.45;101581.38;3143234;23;20022;-80
2024/02/04 02:11:39;;;;;;;3.05;2.53;;;;;;;7.54;70.56;101588.28;3142538;22;20016;-81
2024/02/04 02:12:56;;;;;;;3.88;3.28;;;;;;;7.53;70.57;101589.13;3143529;23;20023;-79
2024/02/04 02:14:14;;;;;;;3.85;3.13;;;;;;;7.53;70.60;101594.31;3143180;22;20024;-80
2024/02/04 02:15:30;;;;;;;4.75;3.10;;;;;;;7.51;70.49;101586.50;3142747;22;20858;-79
2024/02/04 02:16:45;;;;;;;3.45;2.92;;;;;;;7.51;70.62;101583.91;3143470;23;20023;-79
2024/02/04 02:18:02;;;;;;;5.68;3.15;;;;;;;7.51;70.86;101583.00;3142958;23;20181;-79
2024/02/04 02:19:43;;;;;;;2.75;2.50;;;;;;;7.51;70.89;101585.59;3142466;22;20558;-80
2024/02/04 02:21:13;;;;;;;4.07;3.67;;;;;;;7.49;70.56;101585.59;3143373;23;20024;-79
2024/02/04 02:22:29;;;;;;;4.40;3.53;;;;;;;7.49;70.71;101587.31;3143414;23;20487;-79
2024/02/04 02:23:49;;;;;;;3.90;2.72;;;;;;;7.49;70.94;101593.38;3143334;22;20099;-78
2024/02/04 02:25:05;;;;;;;4.28;2.58;;;;;;;7.48;70.98;101591.63;3144423;22;20017;-80
2024/02/04 02:26:18;;;;;;;2.97;2.28;;;;;;;7.48;70.84;101580.34;3143172;23;20027;-79
2024/02/04 02:27:33;;;;;;;4.85;3.38;;;;;;;7.48;70.60;101580.34;3146985;22;20029;-79
2024/02/04 02:28:46;;;;;;;4.15;3.50;;;;;;;7.48;70.43;101580.34;3145154;23;20367;-78
2024/02/04 02:30:01;;;;;;;3.28;2.88;;;;;;;7.46;70.41;101572.56;3148003;23;20020;-79
2024/02/04 02:31:14;;;;;;;4.13;3.53;;;;;;;7.46;70.74;101574.25;3149086;22;20020;-79
2024/02/04 02:32:29;;;;;;;3.35;2.58;;;;;;;7.46;70.72;101574.25;3149674;23;20070;-80
2024/02/04 02:33:42;;;;;;;3.88;3.08;;;;;;;7.46;70.62;101580.34;3148381;23;20031;-79
2024/02/04 02:34:56;;;;;;;4.40;3.42;;;;;;;7.46;70.61;101571.66;3147812;22;20064;-79
2024/02/04 02:36:13;;;;;;;2.97;2.30;;;;;;;7.46;70.44;101571.66;3149135;22;20020;-79
2024/02/04 02:37:30;;;;;;;3.30;3.00;;;;;;;7.45;70.79;101567.31;3148949;23;20024;-79
2024/02/04 02:38:53;;;;;;;3.78;2.55;;;;;;;7.47;70.93;101573.44;3149324;23;20024;-78
2024/02/04 02:40:11;;;;;;;3.75;3.45;;;;;;;7.45;70.76;101567.31;3148311;22;20375;-78
2024/02/04 02:41:27;;;;;;;2.38;2.17;;;;;;;7.43;70.64;101560.38;3154590;23;20084;-79
2024/02/04 02:42:43;;;;;;;2.30;2.03;;;;;;;7.45;70.79;101556.94;3149500;23;20065;-79
2024/02/04 02:43:57;;;;;;;3.67;2.40;;;;;;;7.42;70.82;101565.53;3149065;22;20024;-80
2024/02/04 02:45:12;;;;;;;3.45;2.55;;;;;;;7.42;70.43;101561.22;3148307;23;20047;-78
2024/02/04 02:46:26;;;;;;;3.92;1.88;;;;;;;7.43;70.79;101562.97;3148628;23;20035;-79
2024/02/04 02:47:41;;;;;;;3.10;2.55;;;;;;;7.44;70.72;101548.28;3147518;22;20080;-80
2024/02/04 02:48:55;;;;;;;3.92;2.97;;;;;;;7.43;70.55;101547.41;3149026;23;20087;-79
2024/02/04 02:50:10;;;;;;;2.88;2.47;;;;;;;7.42;70.61;101540.44;3148436;23;20529;-79
2024/02/04 02:51:23;;;;;;;3.25;2.47;;;;;;;7.42;70.72;101557.75;3148620;22;20024;-78
2024/02/04 02:52:37;;;;;;;3.25;2.67;;;;;;;7.42;70.62;101549.97;3149413;23;20044;-80
2024/02/04 02:53:51;;;;;;;4.25;2.40;;;;;;;7.43;71.04;101550.00;3149088;23;20206;-79
2024/02/04 02:55:06;;;;;;;2.20;1.98;;;;;;;7.43;71.02;101550.00;3148829;22;20103;-79
2024/02/04 02:56:21;;;;;;;2.63;1.88;;;;;;;7.44;70.65;101550.88;3150849;23;20031;-78
2024/02/04 02:57:35;;;;;;;3.95;3.15;;;;;;;7.43;70.64;101552.59;3149198;23;20016;-79
2024/02/04 02:58:49;;;;;;;2.72;2.38;;;;;;;7.43;70.97;101565.59;3149236;23;20037;-79
2024/02/04 03:00:05;;;;;;;3.10;2.05;;;;;;;7.42;70.56;101543.03;3147329;22;20087;-78
2024/02/04 03:01:19;;;;;;;4.65;2.22;;;;;;;7.41;70.79;101543.91;3148956;23;20063;-80
2024/02/04 03:02:33;;;;;;;2.67;2.20;;;;;;;7.40;70.69;101536.94;3148541;23;20386;-80
2024/02/04 03:03:46;;;;;;;3.20;2.55;;;;;;;7.40;70.92;101542.13;3153678;22;20008;-78
2024/02/04 03:05:01;;;;;;;3.88;2.72;;;;;;;7.39;70.38;101524.81;3156886;22;20058;-77
2024/02/04 03:06:14;;;;;;;2.92;2.35;;;;;;;7.39;70.71;101530.00;3157215;22;20045;-79
2024/02/04 03:07:29;;;;;;;2.45;2.00;;;;;;;7.38;70.62;101515.28;3156704;22;20008;-77
2024/02/04 03:08:42;;;;;;;2.50;2.08;;;;;;;7.36;70.77;101532.53;3156173;22;20320;-81
2024/02/04 03:09:57;;;;;;;4.13;3.72;;;;;;;7.36;70.76;101521.28;3151166;23;20063;-80
2024/02/04 03:11:10;;;;;;;2.45;2.03;;;;;;;7.34;70.68;101521.25;3150855;22;20024;-80
2024/02/04 03:12:26;;;;;;;2.80;2.42;;;;;;;7.34;70.98;101523.84;3156698;23;20404;-79
2024/02/04 03:13:39;;;;;;;4.93;3.17;;;;;;;7.33;70.74;101524.69;3150735;23;20035;-80
2024/02/04 03:14:54;;;;;;;2.58;2.33;;;;;;;7.33;70.73;101531.59;3152166;22;20071;-81
2024/02/04 03:16:10;;;;;;;2.60;2.00;;;;;;;7.32;70.73;101516.88;3149926;22;20031;-81
2024/02/04 03:17:24;;;;;;;2.88;2.42;;;;;;;7.31;70.86;101515.13;3150469;23;20024;-80
2024/02/04 03:18:39;;;;;;;2.72;2.17;;;;;;;7.30;70.89;101513.38;3149447;23;20027;-81
2024/02/04 03:19:54;;;;;;;2.85;2.15;;;;;;;7.31;70.85;101500.41;3149143;22;20034;-80
2024/02/04 03:21:12;;;;;;;4.28;2.88;;;;;;;7.30;70.92;101516.81;3148984;23;20031;-80
2024/02/04 03:22:27;;;;;;;3.35;2.03;;;;;;;7.28;70.82;101500.38;3148605;23;20024;-80
2024/02/04 03:23:41;;;;;;;2.80;2.30;;;;;;;7.29;70.72;101509.03;3146744;22;20083;-81
2024/02/04 03:24:56;;;;;;;2.55;1.77;;;;;;;7.28;70.76;101500.38;3148336;22;20398;-80
2024/02/04 03:26:09;;;;;;;2.85;2.55;;;;;;;7.30;70.72;101511.63;3147933;23;20024;-80
2024/02/04 03:27:24;;;;;;;3.08;2.53;;;;;;;7.30;70.73;101513.38;3148914;22;20020;-80
2024/02/04 03:28:38;;;;;;;3.25;2.78;;;;;;;7.30;70.67;101498.66;3148864;23;20447;-80
2024/02/04 03:29:53;;;;;;;3.63;2.22;;;;;;;7.28;70.46;101499.47;3149442;23;20393;-80
2024/02/04 03:31:06;;;;;;;2.92;2.63;;;;;;;7.28;70.62;101509.84;3148814;22;20035;-80
2024/02/04 03:32:21;;;;;;;2.60;2.40;;;;;;;7.27;70.65;101489.94;3149199;23;20075;-80
2024/02/04 03:33:34;;;;;;;3.28;2.03;;;;;;;7.27;70.85;101497.72;3149202;23;20016;-80
2024/02/04 03:34:48;;;;;;;2.78;2.40;;;;;;;7.26;70.79;101486.47;3149605;22;20099;-80
2024/02/04 03:36:02;;;;;;;1.63;1.45;;;;;;;7.25;70.91;101479.53;3149691;22;20024;-80
2024/02/04 03:37:16;;;;;;;2.72;1.92;;;;;;;7.26;70.84;101488.22;3148776;23;20107;-80
2024/02/04 03:38:30;;;;;;;2.53;2.08;;;;;;;7.25;70.62;101479.53;3150411;23;20024;-80
2024/02/04 03:39:44;;;;;;;2.75;1.80;;;;;;;7.25;70.88;101483.84;3149614;22;20095;-80
2024/02/04 03:40:58;;;;;;;2.47;1.98;;;;;;;7.25;70.77;101489.91;3149955;23;20024;-80
2024/02/04 03:42:12;;;;;;;3.40;1.52;;;;;;;7.25;70.87;101478.66;3149958;23;20097;-79
2024/02/04 03:43:25;;;;;;;2.03;1.77;;;;;;;7.25;70.92;101487.31;3148916;22;20385;-79
2024/02/04 03:44:41;;;;;;;2.10;1.90;;;;;;;7.24;70.88;101485.56;3149342;22;20088;-80
2024/02/04 03:45:54;;;;;;;4.00;2.05;;;;;;;7.23;70.87;101476.03;3151114;23;20020;-79
2024/02/04 03:47:09;;;;;;;2.30;1.80;;;;;;;7.22;70.77;101479.47;3156759;22;20036;-78
2024/02/04 03:48:22;;;;;;;1.90;1.58;;;;;;;7.21;70.77;101486.38;3157079;22;20019;-79
2024/02/04 03:49:37;;;;;;;1.48;1.30;;;;;;;7.22;70.90;101495.03;3162158;22;20028;-79
2024/02/04 03:50:50;;;;;;;2.83;2.47;;;;;;;7.21;70.95;101503.69;3155939;22;20297;-80
2024/02/04 03:52:04;;;;;;;2.97;2.28;;;;;;;7.20;70.87;101494.13;3149297;22;20044;-80
2024/02/04 03:53:18;;;;;;;4.35;2.20;;;;;;;7.18;71.22;101496.72;3149960;23;20023;-79
2024/02/04 03:54:32;;;;;;;6.20;2.10;;;;;;;7.17;70.90;101494.94;3149588;22;20024;-80
2024/02/04 03:55:46;;;;;;;2.75;1.75;;;;;;;7.17;70.95;101501.88;3149036;22;20028;-80
2024/02/04 03:57:00;;;;;;;2.13;1.80;;;;;;;7.16;71.10;101506.19;3149575;23;20020;-80
2024/02/04 03:58:14;;;;;;;4.57;2.20;;;;;;;7.16;71.35;101510.53;3150076;23;20024;-79
2024/02/04 03:59:28;;;;;;;2.40;1.80;;;;;;;7.14;71.30;101507.88;3148189;22;20027;-79
2024/02/04 04:00:43;;;;;;;4.82;2.88;;;;;;;7.13;71.00;101485.38;3149436;23;20072;-79
2024/02/04 04:01:57;;;;;;;3.45;2.15;;;;;;;7.12;71.26;101519.06;3149154;23;20020;-79
2024/02/04 04:03:12;;;;;;;2.10;1.67;;;;;;;7.10;71.32;101507.78;3149074;22;20020;-80
2024/02/04 04:04:26;;;;;;;2.33;1.95;;;;;;;7.10;71.34;101507.78;3150063;22;20035;-80
2024/02/04 04:05:40;;;;;;;2.65;1.90;;;;;;;7.09;71.16;101499.13;3149627;23;20075;-80
2024/02/04 04:06:53;;;;;;;2.42;1.92;;;;;;;7.09;71.37;101498.25;3149714;23;20525;-80
2024/02/04 04:08:08;;;;;;;2.75;1.60;;;;;;;7.09;71.43;101499.13;3147663;22;20072;-80
2024/02/04 04:09:21;;;;;;;2.97;1.75;;;;;;;7.07;71.45;101497.34;3149442;23;20028;-79
2024/02/04 04:10:36;;;;;;;2.70;1.90;;;;;;;7.05;71.46;101497.34;3148760;23;20054;-80
2024/02/04 04:11:49;;;;;;;3.17;2.35;;;;;;;7.06;71.42;101493.88;3148634;22;20023;-80
2024/02/04 04:13:04;;;;;;;2.78;2.17;;;;;;;7.04;71.65;101494.69;3148728;23;20048;-80
2024/02/04 04:14:18;;;;;;;2.47;2.25;;;;;;;7.04;71.64;101499.91;3149050;22;20024;-80
2024/02/04 04:15:32;;;;;;;2.08;1.88;;;;;;;7.02;71.66;101504.16;3148146;22;20681;-79
2024/02/04 04:16:47;;;;;;;7.85;2.03;;;;;;;6.98;71.61;101493.75;3149358;23;20024;-79
2024/02/04 04:18:01;;;;;;;2.55;2.35;;;;;;;6.97;71.94;101504.97;3149382;23;20100;-80
2024/02/04 04:19:14;;;;;;;1.80;1.70;;;;;;;6.97;71.72;101507.56;3147431;22;20039;-80
2024/02/04 04:20:29;;;;;;;2.08;1.83;;;;;;;6.97;71.60;101517.94;3148634;23;20072;-79
2024/02/04 04:21:42;;;;;;;2.85;1.70;;;;;;;6.97;71.71;101522.28;3148944;23;20050;-80
2024/02/04 04:22:57;;;;;;;4.47;2.22;;;;;;;6.97;71.77;101533.53;3150026;23;20051;-80
2024/02/04 04:24:10;;;;;;;2.55;2.20;;;;;;;6.97;71.89;101536.13;3148339;22;20079;-79
2024/02/04 04:25:25;;;;;;;3.67;2.42;;;;;;;6.96;72.00;101534.34;3149495;23;20428;-79
2024/02/04 04:26:38;;;;;;;4.45;2.95;;;;;;;6.96;71.74;101549.06;3148682;23;20020;-80
2024/02/04 04:27:52;;;;;;;2.60;1.70;;;;;;;6.96;71.96;101543.84;3148201;22;20077;-79
2024/02/04 04:29:06;;;;;;;4.63;2.15;;;;;;;6.94;71.88;101545.53;3148684;23;20024;-79
2024/02/04 04:30:20;;;;;;;3.60;2.10;;;;;;;6.94;71.94;101546.44;3149508;23;20076;-79
2024/02/04 04:31:34;;;;;;;3.80;2.00;;;;;;;6.94;71.89;101536.06;3148125;22;20035;-80
2024/02/04 04:32:49;;;;;;;2.70;1.90;;;;;;;6.93;71.88;101552.47;3148915;23;20096;-79
2024/02/04 04:34:03;;;;;;;1.70;1.60;;;;;;;6.92;72.07;101542.94;3148745;22;20028;-80
2024/02/04 04:35:17;;;;;;;6.78;1.77;;;;;;;6.92;72.11;101560.22;3148564;22;20076;-80
2024/02/04 04:36:32;;;;;;;2.28;2.00;;;;;;;6.92;72.31;101542.94;3148930;23;20020;-80
2024/02/04 04:37:45;;;;;;;3.70;3.13;;;;;;;6.91;72.05;101540.28;3149015;23;20031;-80
2024/02/04 04:39:00;;;;;;;2.35;2.00;;;;;;;6.92;72.10;101539.47;3149749;23;20048;-80
2024/02/04 04:40:13;;;;;;;2.53;2.15;;;;;;;6.92;72.02;101540.34;3148929;22;20027;-80
2024/02/04 04:41:27;;;;;;;2.78;2.08;;;;;;;6.93;71.88;101538.63;3148569;23;20056;-80
2024/02/04 04:42:41;;;;;;;2.90;2.30;;;;;;;6.94;71.77;101540.34;3148826;23;20024;-80
2024/02/04 04:43:55;;;;;;;4.50;2.60;;;;;;;6.94;72.05;101538.66;3147992;22;20419;-78
2024/02/04 04:45:10;;;;;;;1.40;1.30;;;;;;;6.95;72.04;101543.00;3148870;22;20024;-79
2024/02/04 04:46:25;;;;;;;4.65;2.00;;;;;;;6.96;72.12;101549.06;3149625;23;20020;-80
2024/02/04 04:47:38;;;;;;;3.25;2.47;;;;;;;6.96;72.00;101543.84;3148079;22;20020;-78
2024/02/04 04:48:57;;;;;;;2.35;2.00;;;;;;;6.96;72.07;101549.91;3148843;23;20071;-79
2024/02/04 04:50:11;;;;;;;2.00;1.52;;;;;;;6.96;71.93;101549.91;3148008;23;20355;-79
2024/02/04 04:51:25;;;;;;;2.20;2.00;;;;;;;6.97;72.01;101556.88;3148102;22;20028;-79
2024/02/04 04:52:39;;;;;;;2.28;1.52;;;;;;;6.96;71.85;101549.91;3149148;23;20103;-79
2024/02/04 04:53:53;;;;;;;2.13;1.92;;;;;;;6.97;72.04;101537.84;3149325;23;20024;-79
2024/02/04 04:55:07;;;;;;;2.58;1.40;;;;;;;6.96;71.93;101530.88;3148139;22;20362;-79
2024/02/04 04:56:22;;;;;;;3.00;2.03;;;;;;;6.97;72.02;101545.63;3148855;23;20022;-79
2024/02/04 04:57:35;;;;;;;3.38;2.28;;;;;;;6.97;72.20;101549.09;3148865;23;20020;-80
2024/02/04 04:58:50;;;;;;;2.78;1.50;;;;;;;6.97;71.88;101553.41;3149867;23;20024;-79
2024/02/04 05:00:06;;;;;;;4.88;1.67;;;;;;;6.97;71.83;101550.81;3148644;22;20629;-80
2024/02/04 05:01:21;;;;;;;2.83;1.73;;;;;;;6.97;71.85;101548.22;3154477;23;20020;-79
2024/02/04 05:02:34;;;;;;;2.95;1.98;;;;;;;6.96;71.77;101555.09;3149646;23;20067;-79
2024/02/04 05:03:49;;;;;;;2.03;1.80;;;;;;;6.97;71.92;101554.28;3149700;22;20020;-79
2024/02/04 05:05:04;;;;;;;2.80;1.60;;;;;;;6.99;71.83;101565.53;3150793;22;20020;-79
2024/02/04 05:06:19;;;;;;;2.20;1.90;;;;;;;6.98;71.76;101558.63;3150768;23;20089;-79
2024/02/04 05:07:32;;;;;;;2.33;1.98;;;;;;;6.99;71.68;101568.16;3150805;22;20020;-80
2024/02/04 05:08:47;;;;;;;7.30;1.70;;;;;;;6.99;71.79;101557.75;3151267;23;20078;-79
2024/02/04 05:10:00;;;;;;;2.95;1.35;;;;;;;7.01;71.81;101556.94;3150162;23;20020;-79
2024/02/04 05:11:15;;;;;;;3.22;2.05;;;;;;;7.02;71.77;101548.28;3149957;22;20095;-80
2024/02/04 05:12:28;;;;;;;2.85;1.70;;;;;;;7.04;71.75;101567.38;3150691;23;20028;-78
2024/02/04 05:13:42;;;;;;;3.08;2.33;;;;;;;7.03;72.03;101558.72;3150641;23;20099;-80
2024/02/04 05:14:56;;;;;;;2.00;1.27;;;;;;;7.04;71.54;101559.59;3151209;22;20471;-79
2024/02/04 05:16:10;;;;;;;1.50;1.27;;;;;;;7.03;71.62;101566.50;3149475;22;20087;-79
2024/02/04 05:17:24;;;;;;;2.65;1.65;;;;;;;7.04;71.61;101564.78;3150900;23;20024;-79
2024/02/04 05:18:38;;;;;;;2.55;2.22;;;;;;;7.04;71.38;101572.56;3150776;23;20076;-80
2024/02/04 05:19:52;;;;;;;2.00;1.65;;;;;;;7.04;71.80;101573.44;3150405;22;20023;-79
2024/02/04 05:21:07;;;;;;;1.85;1.67;;;;;;;7.03;71.69;101566.50;3150070;23;20062;-80
2024/02/04 05:22:21;;;;;;;3.53;2.38;;;;;;;7.03;71.45;101578.63;3150852;23;20032;-79
2024/02/04 05:23:37;;;;;;;2.85;1.80;;;;;;;7.02;71.60;101577.72;3150106;22;20063;-79
2024/02/04 05:24:50;;;;;;;3.92;2.00;;;;;;;7.04;71.63;101575.16;3150538;22;20024;-80
2024/02/04 05:26:05;;;;;;;2.33;1.63;;;;;;;7.04;71.62;101575.16;3149900;23;20071;-80
2024/02/04 05:27:19;;;;;;;2.15;1.80;;;;;;;7.05;71.54;101574.31;3149927;22;20031;-79
2024/02/04 05:28:33;;;;;;;1.88;1.50;;;;;;;7.05;71.47;101576.91;3150504;23;20423;-79
2024/02/04 05:29:47;;;;;;;2.70;1.95;;;;;;;7.06;71.48;101560.50;3150989;23;20035;-79
2024/02/04 05:31:02;;;;;;;2.13;1.85;;;;;;;7.06;71.54;101560.50;3150080;23;20490;-79
2024/02/04 05:32:15;;;;;;;3.03;1.90;;;;;;;7.05;71.61;101559.63;3150194;22;20632;-79
2024/02/04 05:33:30;;;;;;;2.63;1.77;;;;;;;7.05;71.34;101566.53;3150859;23;20047;-80
2024/02/04 05:34:43;;;;;;;4.55;2.10;;;;;;;7.05;71.56;101570.00;3149780;22;20024;-79
2024/02/04 05:35:57;;;;;;;2.38;2.17;;;;;;;7.03;71.54;101571.69;3148934;22;20474;-79
2024/02/04 05:37:12;;;;;;;2.17;1.77;;;;;;;7.04;71.55;101572.56;3150400;23;20035;-79
2024/02/04 05:38:27;;;;;;;1.60;1.45;;;;;;;7.03;71.42;101561.31;3150655;23;20051;-79
2024/02/04 05:39:40;;;;;;;3.20;2.60;;;;;;;7.02;71.49;101564.72;3149417;22;20024;-80
2024/02/04 05:40:54;;;;;;;2.53;1.75;;;;;;;7.01;71.41;101563.00;3150343;23;20160;-79
2024/02/04 05:42:08;;;;;;;3.40;2.00;;;;;;;6.98;71.55;101556.03;3150813;23;20455;-80
2024/02/04 05:43:22;;;;;;;4.07;3.72;;;;;;;6.99;71.63;101564.69;3150204;22;20076;-79
2024/02/04 05:44:36;;;;;;;2.55;1.95;;;;;;;6.99;71.56;101572.47;3150371;22;20027;-79
2024/02/04 05:45:50;;;;;;;4.75;3.13;;;;;;;6.97;71.78;101568.97;3150727;23;20475;-79
2024/02/04 05:47:04;;;;;;;5.63;3.35;;;;;;;6.97;71.80;101564.66;3150215;23;20032;-79
2024/02/04 05:48:18;;;;;;;2.42;2.15;;;;;;;6.98;71.74;101558.63;3149453;22;20075;-80
2024/02/04 05:49:32;;;;;;;2.42;2.00;;;;;;;6.99;71.92;101559.50;3149231;23;20363;-80
2024/02/04 05:50:46;;;;;;;2.00;1.83;;;;;;;6.99;71.91;101557.75;3151102;23;20012;-79